createdAt,value
2019-03-01T05:42:49.618Z,3.33
2019-03-01T05:45:23.592Z,3.03
2019-03-01T05:47:52.550Z,3.27
2019-03-01T05:50:21.789Z,3.60
2019-03-01T05:52:50.933Z,2.90
2019-03-01T05:55:20.110Z,2.93
2019-03-01T05:58:41.365Z,3.20
2019-03-01T06:01:37.663Z,3.20
2019-03-01T06:04:24.129Z,2.90
2019-03-01T06:07:34.452Z,2.80
2019-03-01T06:10:37.803Z,2.73
2019-03-01T06:13:49.450Z,2.97
2019-03-01T06:16:47.279Z,3.10
2019-03-01T06:19:28.737Z,2.97
2019-03-01T06:22:48.007Z,2.70
2019-03-01T06:26:03.183Z,2.67
2019-03-01T06:28:49.035Z,3.03
2019-03-01T06:32:04.115Z,3.27
2019-03-01T06:35:19.545Z,3.20
2019-03-01T06:38:38.706Z,3.40
2019-03-01T06:41:31.639Z,3.00
2019-03-01T06:44:40.932Z,3.33
2019-03-01T06:47:36.884Z,3.00
2019-03-01T06:50:17.949Z,3.07
2019-03-01T06:52:47.094Z,3.00
2019-03-01T06:55:37.935Z,3.10
2019-03-01T06:58:09.306Z,2.87
2019-03-01T07:00:49.816Z,3.20
2019-03-01T07:03:13.325Z,2.83
2019-03-01T07:05:42.768Z,2.70
2019-03-01T07:08:11.887Z,3.10
2019-03-01T07:10:41.126Z,2.80
2019-03-01T07:13:10.309Z,2.70
2019-03-01T07:15:39.446Z,2.97
2019-03-01T07:18:08.576Z,2.97
2019-03-01T07:20:37.717Z,2.90
2019-03-01T07:23:06.879Z,3.07
2019-03-01T07:25:36.049Z,3.20
2019-03-01T07:28:05.181Z,3.00
2019-03-01T07:30:34.424Z,3.20
2019-03-01T07:33:03.638Z,3.00
2019-03-01T07:35:32.794Z,2.90
2019-03-01T07:38:01.975Z,3.57
2019-03-01T07:40:31.169Z,3.37
2019-03-01T07:43:00.511Z,3.20
2019-03-01T07:45:29.733Z,3.03
2019-03-01T07:47:58.924Z,2.90
2019-03-01T07:50:28.135Z,3.23
2019-03-01T07:53:00.306Z,3.10
2019-03-01T07:55:29.457Z,3.20
2019-03-01T07:57:58.946Z,2.83
2019-03-01T08:00:29.578Z,2.83
2019-03-01T08:02:58.780Z,2.63
2019-03-01T08:05:27.945Z,2.80
2019-03-01T08:08:02.544Z,2.73
2019-03-01T08:10:27.950Z,3.93
2019-03-01T08:12:57.249Z,4.13
2019-03-01T08:15:26.439Z,3.80
2019-03-01T08:17:55.627Z,3.37
2019-03-01T08:20:24.773Z,3.23
2019-03-01T08:22:56.798Z,3.57
2019-03-01T08:25:24.967Z,2.97
2019-03-01T08:27:54.125Z,2.33
2019-03-01T08:30:23.281Z,2.73
2019-03-01T08:32:52.428Z,2.40
2019-03-01T08:35:21.691Z,2.80
2019-03-01T08:37:53.370Z,2.17
2019-03-01T08:40:21.925Z,2.00
2019-03-01T08:42:51.056Z,1.60
2019-03-01T08:45:20.287Z,1.90
2019-03-01T08:47:49.511Z,1.50
2019-03-01T08:50:19.177Z,1.80
2019-03-01T08:52:48.342Z,1.60
2019-03-01T08:55:18.621Z,1.80
2019-03-01T08:57:47.821Z,1.30
2019-03-01T09:00:23.228Z,1.70
2019-03-01T09:02:51.759Z,1.50
2019-03-01T09:05:21.058Z,1.97
2019-03-01T09:07:50.334Z,1.80
2019-03-01T09:10:19.571Z,2.00
2019-03-01T09:12:48.742Z,2.27
2019-03-01T09:15:17.935Z,1.90
2019-03-01T09:17:47.075Z,1.90
2019-03-01T09:20:16.584Z,2.10
2019-03-01T09:22:46.043Z,1.80
2019-03-01T09:25:15.502Z,1.30
2019-03-01T09:27:44.658Z,1.47
2019-03-01T09:30:16.879Z,1.37
2019-03-01T09:32:46.035Z,2.10
2019-03-01T09:35:39.778Z,1.80
2019-03-01T09:38:11.320Z,1.40
2019-03-01T09:40:40.719Z,1.80
2019-03-01T09:43:09.914Z,1.50
2019-03-01T09:45:39.514Z,1.97
2019-03-01T09:48:11.964Z,1.60
2019-03-01T09:50:39.708Z,1.70
2019-03-01T09:53:08.872Z,1.57
2019-03-01T09:55:38.597Z,1.70
2019-03-01T09:58:08.624Z,1.80
2019-03-01T10:00:40.693Z,1.73
2019-03-01T10:03:09.846Z,1.43
2019-03-01T10:05:39.013Z,1.63
2019-03-01T10:08:08.165Z,1.70
2019-03-01T10:10:37.324Z,1.60
2019-03-01T10:13:06.522Z,1.70
2019-03-01T10:15:35.785Z,1.60
2019-03-01T10:18:05.002Z,1.73
2019-03-01T10:20:34.164Z,1.47
2019-03-01T10:23:03.332Z,1.70
2019-03-01T10:25:32.496Z,1.73
2019-03-01T10:28:01.755Z,1.80
2019-03-01T10:30:30.994Z,1.90
2019-03-01T10:33:00.146Z,1.70
2019-03-01T10:35:29.281Z,1.70
2019-03-01T10:37:58.520Z,1.60
2019-03-01T10:40:27.881Z,1.67
2019-03-01T10:42:57.038Z,1.37
2019-03-01T10:45:26.564Z,1.40
2019-03-01T10:47:55.722Z,1.67
2019-03-01T10:50:24.910Z,1.90
2019-03-01T10:52:54.134Z,1.70
2019-03-01T10:55:23.293Z,1.70
2019-03-01T10:57:52.437Z,2.50
2019-03-01T11:00:24.005Z,1.80
2019-03-01T11:02:53.800Z,2.13
2019-03-01T11:05:23.000Z,2.30
2019-03-01T11:07:52.693Z,2.13
2019-03-01T11:10:30.576Z,2.10
2019-03-01T11:12:59.810Z,2.17
2019-03-01T11:15:29.421Z,1.77
2019-03-01T11:17:58.547Z,1.90
2019-03-01T11:20:27.785Z,1.97
2019-03-01T11:22:57.006Z,2.83
2019-03-01T11:25:26.564Z,6.53
2019-03-01T11:27:56.037Z,3.20
2019-03-01T11:30:27.607Z,2.63
2019-03-01T11:32:56.833Z,2.00
2019-03-01T11:35:26.717Z,1.60
2019-03-01T11:37:56.353Z,2.27
2019-03-01T11:40:28.393Z,1.53
2019-03-01T11:42:58.292Z,1.30
2019-03-01T11:45:28.922Z,1.30
2019-03-01T11:47:58.259Z,1.50
2019-03-01T11:50:27.619Z,1.50
2019-03-01T11:52:56.999Z,1.73
2019-03-01T11:55:26.271Z,1.13
2019-03-01T11:57:55.537Z,1.30
2019-03-01T12:00:25.428Z,1.20
2019-03-01T12:02:54.587Z,1.27
2019-03-01T12:05:23.782Z,1.13
2019-03-01T12:07:52.992Z,1.07
2019-03-01T12:10:24.067Z,1.10
2019-03-01T12:12:53.262Z,1.50
2019-03-01T12:15:22.635Z,1.10
2019-03-01T12:17:51.795Z,1.10
2019-03-01T12:20:22.051Z,1.27
2019-03-01T12:22:51.281Z,1.50
2019-03-01T12:25:20.473Z,1.40
2019-03-01T12:36:04.782Z,1.07
2019-03-01T12:38:34.071Z,1.10
2019-03-01T12:41:03.214Z,1.23
2019-03-01T12:43:32.473Z,0.90
2019-03-01T12:46:01.696Z,1.10
2019-03-01T12:48:30.889Z,1.00
2019-03-01T12:51:00.038Z,1.30
2019-03-01T12:53:29.236Z,1.20
2019-03-01T12:55:58.404Z,1.10
2019-03-01T12:58:27.516Z,1.00
2019-03-01T13:00:57.071Z,1.60
2019-03-01T13:03:26.256Z,2.00
2019-03-01T13:05:55.460Z,1.20
2019-03-01T13:08:24.770Z,1.40
2019-03-01T13:10:53.912Z,4.30
2019-03-01T13:13:23.115Z,4.00
2019-03-01T13:15:52.444Z,8.40
2019-03-01T13:18:22.181Z,4.50
2019-03-01T13:20:51.338Z,1.83
2019-03-01T13:23:20.820Z,4.07
2019-03-01T13:25:50.004Z,3.93
2019-03-01T13:28:19.285Z,2.40
2019-03-01T13:30:48.589Z,4.97
2019-03-01T13:33:17.854Z,3.30
2019-03-01T13:35:47.660Z,1.50
2019-03-01T13:38:16.871Z,2.70
2019-03-01T13:40:46.129Z,2.23
2019-03-01T13:43:15.283Z,1.93
2019-03-01T13:45:47.462Z,1.80
2019-03-01T13:48:15.836Z,1.90
2019-03-01T13:50:46.244Z,2.10
2019-03-01T13:53:15.635Z,1.80
2019-03-01T13:55:48.097Z,2.50
2019-03-01T13:58:17.384Z,2.07
2019-03-01T14:00:48.801Z,2.40
2019-03-01T14:03:20.841Z,1.90
2019-03-01T14:05:51.107Z,1.60
2019-03-01T14:08:19.933Z,2.50
2019-03-01T14:10:49.071Z,2.73
2019-03-01T14:13:18.242Z,2.53
2019-03-01T14:15:47.366Z,1.40
2019-03-01T14:18:16.522Z,2.40
2019-03-01T14:20:45.786Z,2.57
2019-03-01T14:23:14.973Z,2.40
2019-03-01T14:25:44.856Z,2.60
2019-03-01T14:28:14.021Z,2.67
2019-03-01T14:30:43.318Z,2.27
2019-03-01T14:33:12.507Z,2.10
2019-03-01T14:35:41.660Z,2.30
2019-03-01T14:38:10.876Z,2.83
2019-03-01T14:40:40.045Z,2.40
2019-03-01T14:43:09.320Z,2.30
2019-03-01T14:45:41.576Z,2.10
2019-03-01T14:48:09.630Z,2.30
2019-03-01T14:50:38.982Z,2.10
2019-03-01T14:53:08.229Z,2.30
2019-03-01T14:55:40.880Z,2.17
2019-03-01T14:58:22.463Z,1.83
2019-03-01T15:01:04.721Z,1.83
2019-03-01T15:03:42.789Z,1.70
2019-03-01T15:06:15.364Z,2.10
2019-03-01T15:08:45.372Z,2.20
2019-03-01T15:11:17.821Z,1.87
2019-03-01T15:13:48.341Z,1.50
2019-03-01T15:16:17.553Z,1.73
2019-03-01T15:18:46.809Z,1.90
2019-03-01T15:21:16.575Z,2.37
2019-03-01T15:23:45.892Z,2.93
2019-03-01T15:26:15.725Z,3.87
2019-03-01T15:28:53.877Z,4.57
2019-03-01T15:31:21.271Z,4.77
2019-03-01T15:33:51.078Z,9.90
2019-03-01T15:36:20.278Z,4.20
2019-03-01T15:38:49.528Z,3.10
2019-03-01T15:41:18.916Z,24.37
2019-03-01T15:43:48.057Z,3.73
2019-03-01T15:46:17.989Z,10.40
2019-03-01T15:48:47.542Z,7.63
2019-03-01T15:51:16.705Z,9.10
2019-03-01T15:53:45.901Z,3.33
2019-03-01T15:56:15.118Z,3.30
2019-03-01T15:58:46.417Z,2.57
2019-03-01T16:01:15.370Z,3.33
2019-03-01T16:03:44.530Z,3.70
2019-03-01T16:06:17.454Z,4.10
2019-03-01T16:08:47.917Z,4.67
2019-03-01T16:11:15.934Z,5.07
2019-03-01T16:13:48.372Z,3.90
2019-03-01T16:16:15.927Z,2.90
2019-03-01T16:18:45.082Z,3.30
2019-03-01T16:21:14.255Z,3.60
2019-03-01T16:23:45.932Z,2.70
2019-03-01T16:26:14.414Z,2.90
2019-03-01T16:28:43.598Z,3.10
2019-03-01T16:31:12.746Z,3.27
2019-03-01T16:33:43.262Z,4.83
2019-03-01T16:36:18.767Z,4.10
2019-03-01T16:38:48.998Z,6.07
2019-03-01T16:41:18.570Z,5.07
2019-03-01T16:43:47.816Z,5.30
2019-03-01T16:46:17.140Z,6.63
2019-03-01T16:48:48.824Z,5.13
2019-03-01T16:51:18.672Z,6.10
2019-03-01T16:53:48.250Z,4.30
2019-03-01T16:56:17.895Z,13.37
2019-03-01T16:58:47.157Z,8.47
2019-03-01T17:01:16.393Z,4.73
2019-03-01T17:03:45.549Z,4.07
2019-03-01T17:06:14.815Z,3.90
2019-03-01T17:08:44.045Z,4.27
2019-03-01T17:11:13.704Z,4.37
2019-03-01T17:13:42.916Z,4.47
2019-03-01T17:16:12.220Z,4.70
2019-03-01T17:18:44.528Z,4.90
2019-03-01T17:21:15.470Z,4.83
2019-03-01T17:23:43.281Z,5.10
2019-03-01T17:26:12.729Z,4.33
2019-03-01T17:28:45.166Z,4.10
2019-03-01T17:31:14.335Z,3.40
2019-03-01T17:33:45.189Z,3.20
2019-03-01T17:36:16.767Z,3.00
2019-03-01T17:38:46.206Z,3.70
2019-03-01T17:41:15.832Z,3.97
2019-03-01T17:43:45.107Z,4.80
2019-03-01T17:46:14.316Z,6.30
2019-03-01T17:48:43.658Z,4.60
2019-03-01T17:51:18.223Z,5.57
2019-03-01T17:53:47.179Z,5.73
2019-03-01T17:56:18.625Z,6.20
2019-03-01T17:58:50.227Z,5.97
2019-03-01T18:01:19.460Z,6.23
2019-03-01T18:03:48.635Z,6.33
2019-03-01T18:06:19.277Z,6.43
2019-03-01T18:08:48.724Z,5.63
2019-03-01T18:11:18.174Z,4.77
2019-03-01T18:13:48.319Z,4.53
2019-03-01T18:16:17.646Z,5.07
2019-03-01T18:18:49.517Z,4.97
2019-03-01T18:21:17.815Z,4.87
2019-03-01T18:23:46.990Z,4.87
2019-03-01T18:26:16.230Z,4.80
2019-03-01T18:28:45.427Z,4.53
2019-03-01T18:31:14.597Z,4.67
2019-03-01T18:33:43.808Z,5.57
2019-03-01T18:36:13.008Z,4.97
2019-03-01T18:38:42.434Z,5.17
2019-03-01T18:41:11.638Z,5.00
2019-03-01T18:43:40.866Z,5.90
2019-03-01T18:46:10.240Z,6.20
2019-03-01T18:48:44.104Z,6.90
2019-03-01T18:51:12.612Z,7.00
2019-03-01T18:53:41.820Z,8.78
2019-03-01T18:56:11.046Z,7.67
2019-03-01T18:58:40.324Z,7.40
2019-03-01T19:01:12.250Z,7.70
2019-03-01T19:03:41.958Z,7.37
2019-03-01T19:06:12.851Z,6.90
2019-03-01T19:08:42.429Z,7.83
2019-03-01T19:11:11.580Z,9.20
2019-03-01T19:13:41.083Z,8.20
2019-03-01T19:16:11.016Z,7.73
2019-03-01T19:18:42.147Z,8.23
2019-03-01T19:21:14.045Z,8.70
2019-03-01T19:23:43.907Z,9.00
2019-03-01T19:26:13.719Z,9.10
2019-03-01T19:28:43.259Z,9.13
2019-03-01T19:31:12.604Z,7.97
2019-03-01T19:33:41.861Z,8.30
2019-03-01T19:36:11.108Z,7.90
2019-03-01T19:38:40.344Z,8.20
2019-03-01T19:41:09.569Z,8.50
2019-03-01T19:43:41.697Z,7.93
2019-03-01T19:46:12.695Z,8.53
2019-03-01T19:48:41.554Z,8.70
2019-03-01T19:51:10.780Z,8.33
2019-03-01T19:53:40.063Z,8.77
2019-03-01T19:56:09.482Z,8.77
2019-03-01T19:58:38.690Z,9.70
2019-03-01T20:01:07.880Z,8.80
2019-03-01T20:03:37.116Z,8.57
2019-03-01T20:06:08.041Z,9.30
2019-03-01T20:08:37.261Z,9.23
2019-03-01T20:11:06.443Z,10.13
2019-03-01T20:13:35.601Z,10.33
2019-03-01T20:16:04.954Z,9.90
2019-03-01T20:18:34.204Z,10.03
2019-03-01T20:21:05.918Z,10.03
2019-03-01T20:23:35.347Z,10.33
2019-03-01T20:26:04.664Z,10.07
2019-03-01T20:28:33.982Z,10.47
2019-03-01T20:31:04.880Z,11.27
2019-03-01T20:33:34.283Z,10.80
2019-03-01T20:36:03.547Z,11.03
2019-03-01T20:38:32.864Z,10.80
2019-03-01T20:41:03.211Z,11.93
2019-03-01T20:43:33.263Z,12.37
2019-03-01T20:46:03.766Z,11.93
2019-03-01T20:48:33.439Z,11.33
2019-03-01T20:51:02.760Z,10.53
2019-03-01T20:53:32.017Z,10.70
2019-03-01T20:56:01.466Z,10.33
2019-03-01T20:58:31.232Z,10.30
2019-03-01T21:01:01.974Z,9.93
2019-03-01T21:03:31.566Z,10.20
2019-03-01T21:06:01.648Z,10.67
2019-03-01T21:08:31.910Z,10.30
2019-03-01T21:11:01.087Z,11.20
2019-03-01T21:13:30.269Z,10.50
2019-03-01T21:15:59.600Z,10.93
2019-03-01T21:18:30.813Z,11.00
2019-03-01T21:20:59.750Z,11.10
2019-03-01T21:23:28.980Z,11.23
2019-03-01T21:25:58.187Z,11.40
2019-03-01T21:28:28.738Z,11.50
2019-03-01T21:30:59.013Z,10.70
2019-03-01T21:33:28.952Z,10.20
2019-03-01T21:35:58.192Z,9.60
2019-03-01T21:38:27.454Z,10.40
2019-03-01T21:40:56.700Z,10.60
2019-03-01T21:43:25.876Z,11.00
2019-03-01T21:45:55.536Z,10.20
2019-03-01T21:48:26.134Z,11.47
2019-03-01T21:50:55.692Z,10.60
2019-03-01T21:53:25.375Z,11.83
2019-03-01T21:55:54.856Z,11.43
2019-03-01T21:58:24.008Z,10.67
2019-03-01T22:00:53.191Z,10.50
2019-03-01T22:03:24.819Z,10.70
2019-03-01T22:05:53.305Z,11.30
2019-03-01T22:08:26.164Z,11.50
2019-03-01T22:10:55.411Z,11.60
2019-03-01T22:13:24.562Z,11.70
2019-03-01T22:15:53.713Z,12.60
2019-03-01T22:18:24.880Z,12.90
2019-03-01T22:20:54.316Z,13.13
2019-03-01T22:23:23.464Z,14.87
2019-03-01T22:25:52.902Z,14.87
2019-03-01T22:28:22.056Z,15.47
